Time;durP1;ratioP1;P1;durP2;ratioP2;P2;SDS_P1;SDS_P2;PMS_P1;PMS_P2;Temp;Humidity;BMP_temperature;BMP_pressure;BME280_temperature;BME280_humidity;BME280_pressure;Samples;Min_cycle;Max_cycle;Signal;HPM_P1;HPM_P2
2022/07/10 00:01:06;;;;;;;7.53;1.58;;;14.90;99.90;;;;;;5105101;28;20430;-85
2022/07/10 00:03:34;;;;;;;5.07;1.40;;;14.80;99.90;;;;;;5076660;28;20389;-88
2022/07/10 00:06:02;;;;;;;6.35;1.42;;;14.70;99.90;;;;;;5094374;28;20416;-87
2022/07/10 00:08:30;;;;;;;4.57;1.58;;;14.80;99.90;;;;;;5056517;28;20398;-86
2022/07/10 00:10:58;;;;;;;4.70;1.60;;;14.80;99.90;;;;;;5074067;28;20760;-87
2022/07/10 00:13:25;;;;;;;5.75;1.45;;;14.80;99.90;;;;;;5074223;28;20907;-86
2022/07/10 00:15:53;;;;;;;7.07;1.80;;;14.80;99.90;;;;;;5075493;28;20394;-86
2022/07/10 00:18:21;;;;;;;5.50;1.98;;;14.70;99.90;;;;;;5073028;28;20420;-87
2022/07/10 00:20:49;;;;;;;3.60;1.20;;;14.70;99.90;;;;;;5073877;28;20440;-89
2022/07/10 00:23:17;;;;;;;5.68;1.40;;;14.60;99.90;;;;;;5072808;28;20399;-86
2022/07/10 00:25:44;;;;;;;7.07;1.60;;;14.60;99.90;;;;;;5073782;28;20832;-85
2022/07/10 00:28:12;;;;;;;4.95;1.58;;;14.60;99.90;;;;;;5076136;28;20380;-87
2022/07/10 00:30:41;;;;;;;5.10;1.70;;;14.60;99.90;;;;;;5093836;28;20388;-87
2022/07/10 00:33:09;;;;;;;3.80;1.55;;;14.60;99.90;;;;;;5109729;28;20388;-88
2022/07/10 00:35:37;;;;;;;6.32;2.00;;;14.70;99.90;;;;;;5092755;28;20385;-87
2022/07/10 00:38:05;;;;;;;4.40;1.67;;;14.60;99.90;;;;;;5094024;28;20423;-87
2022/07/10 00:40:32;;;;;;;6.18;1.83;;;14.50;99.90;;;;;;5093712;28;20395;-86
2022/07/10 00:43:00;;;;;;;4.40;1.83;;;14.50;99.90;;;;;;5110479;28;20399;-86
2022/07/10 00:45:28;;;;;;;3.85;1.70;;;14.40;99.90;;;;;;5109526;28;20381;-87
2022/07/10 00:47:56;;;;;;;5.87;2.07;;;14.40;99.90;;;;;;5093698;28;20408;-86
2022/07/10 00:50:24;;;;;;;6.88;2.00;;;14.40;99.90;;;;;;5109404;28;20380;-86
2022/07/10 00:52:52;;;;;;;5.93;1.50;;;14.40;99.90;;;;;;5092240;28;20390;-86
2022/07/10 00:55:20;;;;;;;3.33;1.83;;;14.30;99.90;;;;;;5109371;28;20898;-89
2022/07/10 00:57:49;;;;;;;5.10;1.90;;;14.20;99.90;;;;;;5092340;28;20388;-87
2022/07/10 01:00:18;;;;;;;6.40;2.03;;;14.20;99.90;;;;;;5108963;28;20382;-85
2022/07/10 01:02:47;;;;;;;4.47;2.08;;;14.20;99.90;;;;;;5108999;28;20463;-86
2022/07/10 01:05:14;;;;;;;5.85;1.90;;;14.30;99.90;;;;;;5092095;28;20469;-85
2022/07/10 01:07:42;;;;;;;6.22;2.30;;;14.30;99.90;;;;;;5091777;28;20806;-87
2022/07/10 01:10:10;;;;;;;5.25;2.28;;;14.30;99.90;;;;;;5092200;28;20384;-87
2022/07/10 01:12:38;;;;;;;5.90;1.90;;;14.20;99.90;;;;;;5093094;28;20392;-86
2022/07/10 01:15:07;;;;;;;7.07;2.28;;;14.10;99.90;;;;;;5091867;28;20685;-87
2022/07/10 01:17:35;;;;;;;4.65;1.83;;;14.20;99.90;;;;;;5091646;28;20393;-86
2022/07/10 01:20:10;;;;;;;8.48;1.90;;;14.20;99.90;;;;;;5091722;28;20384;-87
2022/07/10 01:22:38;;;;;;;6.13;1.83;;;14.20;99.90;;;;;;5092864;28;20946;-86
2022/07/10 01:25:06;;;;;;;5.88;2.13;;;14.10;99.90;;;;;;5093037;28;20441;-87
2022/07/10 01:27:34;;;;;;;3.60;2.00;;;14.10;99.90;;;;;;5092823;28;20376;-86
2022/07/10 01:30:02;;;;;;;4.50;1.83;;;14.10;99.90;;;;;;5074861;28;20897;-86
2022/07/10 01:32:40;;;;;;;6.60;2.37;;;14.10;99.90;;;;;;5091452;28;20385;-86
2022/07/10 01:35:08;;;;;;;6.55;1.88;;;14.10;99.90;;;;;;5092832;28;20389;-87
2022/07/10 01:37:36;;;;;;;5.63;1.70;;;14.00;99.90;;;;;;5092695;28;20661;-86
2022/07/10 01:40:05;;;;;;;5.00;2.00;;;13.90;99.90;;;;;;5091510;28;20473;-84
2022/07/10 01:42:33;;;;;;;5.50;1.95;;;14.00;99.90;;;;;;5074621;28;20955;-86
2022/07/10 01:45:01;;;;;;;6.00;2.00;;;14.00;99.90;;;;;;5092531;28;20446;-86
2022/07/10 01:47:33;;;;;;;5.20;2.00;;;13.90;99.90;;;;;;5092469;28;20403;-85
2022/07/10 01:50:02;;;;;;;3.88;1.85;;;13.90;99.90;;;;;;5091235;28;20386;-85
2022/07/10 01:52:30;;;;;;;4.15;1.98;;;13.90;99.90;;;;;;5092295;28;20392;-84
2022/07/10 01:54:58;;;;;;;4.22;1.90;;;13.90;99.90;;;;;;5092544;28;20441;-85
2022/07/10 01:57:26;;;;;;;8.90;2.38;;;13.90;99.90;;;;;;5092400;28;20387;-86
2022/07/10 01:59:53;;;;;;;4.78;2.20;;;14.00;99.90;;;;;;5092211;28;20385;-86
2022/07/10 02:02:21;;;;;;;6.47;2.15;;;14.00;99.90;;;;;;5090861;28;20400;-87
2022/07/10 02:04:49;;;;;;;6.73;2.73;;;14.00;99.90;;;;;;5074297;28;20789;-85
2022/07/10 02:07:21;;;;;;;9.02;2.50;;;14.00;99.90;;;;;;5090764;28;20450;-86
2022/07/10 02:09:49;;;;;;;9.43;4.00;;;14.00;99.90;;;;;;5091024;28;20384;-86
2022/07/10 02:12:16;;;;;;;12.73;4.00;;;14.00;99.90;;;;;;5107267;28;20392;-86
2022/07/10 02:14:44;;;;;;;10.17;3.67;;;14.10;99.90;;;;;;5108149;28;20396;-87
2022/07/10 02:17:12;;;;;;;6.07;3.65;;;14.10;99.90;;;;;;5091906;28;20874;-87
2022/07/10 02:19:40;;;;;;;6.75;4.40;;;14.10;99.90;;;;;;5091966;28;20388;-86
2022/07/10 02:22:08;;;;;;;8.00;4.10;;;13.90;99.90;;;;;;5107791;28;20419;-86
2022/07/10 02:24:36;;;;;;;5.72;4.05;;;14.00;99.90;;;;;;5092064;28;20388;-86
2022/07/10 02:27:04;;;;;;;7.73;4.50;;;14.10;99.90;;;;;;5107737;28;20429;-86
2022/07/10 02:29:32;;;;;;;6.50;4.32;;;14.10;99.90;;;;;;5090725;28;20438;-87
2022/07/10 02:31:59;;;;;;;5.75;3.97;;;14.10;99.90;;;;;;5107481;28;20380;-86
2022/07/10 02:34:27;;;;;;;8.37;4.10;;;14.20;99.90;;;;;;5091936;28;20393;-86
2022/07/10 02:36:55;;;;;;;6.35;4.10;;;14.20;99.90;;;;;;5091730;28;20425;-87
2022/07/10 02:39:23;;;;;;;6.00;4.83;;;14.20;99.90;;;;;;5091947;28;20388;-86
2022/07/10 02:41:51;;;;;;;7.93;4.57;;;14.20;99.90;;;;;;5090504;28;20472;-85
2022/07/10 02:44:18;;;;;;;7.83;5.20;;;14.30;99.90;;;;;;5091924;28;20862;-85
2022/07/10 02:46:46;;;;;;;5.13;4.15;;;14.20;99.90;;;;;;5090423;28;20376;-86
2022/07/10 02:49:14;;;;;;;5.60;4.10;;;14.20;99.90;;;;;;5090685;28;20446;-88
2022/07/10 02:51:42;;;;;;;4.90;4.40;;;14.20;99.90;;;;;;5090334;28;20388;-87
2022/07/10 02:54:10;;;;;;;5.60;4.15;;;14.20;99.90;;;;;;5107374;28;20388;-87
2022/07/10 02:56:38;;;;;;;7.70;4.20;;;14.20;99.90;;;;;;5107342;28;20929;-87
2022/07/10 02:59:06;;;;;;;5.35;4.43;;;14.20;99.90;;;;;;5091817;28;20388;-86
2022/07/10 03:01:34;;;;;;;6.43;4.40;;;14.20;99.90;;;;;;5078671;28;20432;-87
2022/07/10 03:04:02;;;;;;;13.40;3.65;;;14.10;99.90;;;;;;5070191;28;20896;-87
2022/07/10 03:06:30;;;;;;;6.00;4.45;;;14.10;99.90;;;;;;5072617;28;20381;-85
2022/07/10 03:08:58;;;;;;;5.90;4.05;;;14.00;99.90;;;;;;5091552;28;20471;-85
2022/07/10 03:11:26;;;;;;;5.70;4.05;;;14.00;99.90;;;;;;5073564;28;20388;-86
2022/07/10 03:13:53;;;;;;;4.97;3.78;;;14.10;99.90;;;;;;5090171;28;20970;-86
2022/07/10 03:16:21;;;;;;;5.40;4.07;;;14.10;99.90;;;;;;5091618;28;20417;-86
2022/07/10 03:18:49;;;;;;;5.82;4.25;;;14.10;99.90;;;;;;5090142;28;20392;-86
2022/07/10 03:21:17;;;;;;;5.20;4.13;;;14.10;99.90;;;;;;5056982;28;20380;-87
2022/07/10 03:23:45;;;;;;;4.93;3.92;;;14.10;99.90;;;;;;5093166;28;20388;-84
2022/07/10 03:26:12;;;;;;;5.60;4.78;;;14.20;99.90;;;;;;5077030;28;20380;-84
2022/07/10 03:28:40;;;;;;;5.55;4.43;;;14.20;99.90;;;;;;5077137;28;20475;-86
2022/07/10 03:31:09;;;;;;;6.93;4.70;;;14.20;99.90;;;;;;5077367;28;20380;-85
2022/07/10 03:33:37;;;;;;;5.77;4.17;;;14.20;99.90;;;;;;5077157;28;20412;-85
2022/07/10 03:36:05;;;;;;;5.93;4.20;;;14.20;99.90;;;;;;5076919;28;20392;-86
2022/07/10 03:38:33;;;;;;;5.13;4.45;;;14.20;99.90;;;;;;5076679;28;20429;-85
2022/07/10 03:41:02;;;;;;;5.78;4.30;;;14.20;99.90;;;;;;5076877;28;20735;-86
2022/07/10 03:43:30;;;;;;;5.10;4.60;;;14.20;99.90;;;;;;5094890;28;20912;-85
2022/07/10 03:45:58;;;;;;;6.43;5.13;;;14.20;99.90;;;;;;5076658;28;20430;-86
2022/07/10 03:48:26;;;;;;;5.68;4.88;;;14.20;99.90;;;;;;5076794;28;20385;-85
2022/07/10 03:50:53;;;;;;;5.35;4.68;;;14.20;99.90;;;;;;5076515;28;20388;-87
2022/07/10 03:53:21;;;;;;;7.47;5.22;;;14.20;99.90;;;;;;5076662;28;20400;-86
2022/07/10 03:55:49;;;;;;;5.70;5.10;;;14.30;99.90;;;;;;5094573;28;20414;-85
2022/07/10 03:58:17;;;;;;;4.88;4.38;;;14.30;99.90;;;;;;5077022;28;20389;-86
2022/07/10 04:00:45;;;;;;;5.00;4.50;;;14.30;99.90;;;;;;5076543;28;20392;-85
2022/07/10 04:03:13;;;;;;;9.57;4.00;;;14.30;99.90;;;;;;5093299;28;20396;-84
2022/07/10 04:05:41;;;;;;;6.32;4.68;;;14.10;99.90;;;;;;5076376;28;20396;-85
2022/07/10 04:08:09;;;;;;;5.70;4.50;;;14.10;99.90;;;;;;5072906;28;20504;-84
2022/07/10 04:10:38;;;;;;;5.70;4.63;;;14.10;99.90;;;;;;5074332;28;20443;-86
2022/07/10 04:13:07;;;;;;;5.85;4.43;;;14.00;99.90;;;;;;5074142;28;20891;-85
2022/07/10 04:15:35;;;;;;;6.30;4.90;;;14.10;99.90;;;;;;5074018;28;20386;-85
2022/07/10 04:18:03;;;;;;;6.25;5.22;;;14.20;99.90;;;;;;5072944;28;20422;-84
2022/07/10 04:20:30;;;;;;;5.32;4.80;;;14.20;99.90;;;;;;5073957;28;20474;-84
2022/07/10 04:22:58;;;;;;;5.75;4.75;;;14.10;99.90;;;;;;5072748;28;20483;-86
2022/07/10 04:25:26;;;;;;;4.90;4.40;;;14.20;99.90;;;;;;5072750;28;20888;-86
2022/07/10 04:27:54;;;;;;;6.72;5.18;;;14.20;99.90;;;;;;5072588;28;20412;-87
2022/07/10 04:30:22;;;;;;;6.30;5.20;;;14.30;99.90;;;;;;5089381;28;20453;-87
2022/07/10 04:32:49;;;;;;;5.60;5.00;;;14.30;99.90;;;;;;5089190;28;20394;-86
2022/07/10 04:35:17;;;;;;;5.95;5.35;;;14.30;99.90;;;;;;5072196;28;20389;-87
2022/07/10 04:37:46;;;;;;;6.93;5.23;;;14.30;99.90;;;;;;5073434;28;20390;-87
2022/07/10 04:40:14;;;;;;;8.13;4.78;;;14.30;99.90;;;;;;5073658;28;20388;-85
2022/07/10 04:42:42;;;;;;;6.03;4.95;;;14.30;99.90;;;;;;5072074;28;20402;-86
2022/07/10 04:45:10;;;;;;;6.13;5.00;;;14.20;99.90;;;;;;5072379;28;20426;-86
2022/07/10 04:47:37;;;;;;;6.10;4.93;;;14.20;99.90;;;;;;5073498;28;20792;-86
2022/07/10 04:50:06;;;;;;;6.00;4.90;;;14.20;99.90;;;;;;5073498;28;20378;-87
2022/07/10 04:52:34;;;;;;;5.60;4.65;;;14.20;99.90;;;;;;5072188;28;20390;-86
2022/07/10 04:55:02;;;;;;;5.40;4.75;;;14.20;99.90;;;;;;5088933;28;20393;-84
2022/07/10 04:57:30;;;;;;;6.10;4.88;;;14.30;99.90;;;;;;5073767;28;20394;-86
2022/07/10 04:59:57;;;;;;;4.60;4.10;;;14.20;99.90;;;;;;5073327;28;20470;-85
2022/07/10 05:02:25;;;;;;;4.72;4.20;;;14.20;99.90;;;;;;5072285;28;20409;-84
2022/07/10 05:04:53;;;;;;;7.20;4.85;;;14.30;99.90;;;;;;5071823;28;20445;-85
2022/07/10 05:07:21;;;;;;;5.10;4.40;;;14.20;99.90;;;;;;5081378;28;20623;-85
2022/07/10 05:09:49;;;;;;;5.25;4.45;;;14.30;99.90;;;;;;5093125;28;20442;-85
2022/07/10 05:12:17;;;;;;;5.88;4.85;;;14.30;99.90;;;;;;5091949;28;20789;-86
2022/07/10 05:14:45;;;;;;;4.93;4.28;;;14.30;99.90;;;;;;5075233;28;20473;-85
2022/07/10 05:17:13;;;;;;;6.60;4.70;;;14.30;99.90;;;;;;5075323;28;20434;-84
2022/07/10 05:19:40;;;;;;;6.10;5.15;;;14.00;99.90;;;;;;5093064;28;20824;-84
2022/07/10 05:22:09;;;;;;;5.68;5.07;;;14.10;99.90;;;;;;5074865;28;20487;-85
2022/07/10 05:24:37;;;;;;;5.25;4.35;;;14.20;99.90;;;;;;5092828;28;20385;-84
2022/07/10 05:27:05;;;;;;;5.50;5.00;;;14.30;99.90;;;;;;5074797;28;20380;-86
2022/07/10 05:29:33;;;;;;;5.68;5.15;;;14.30;99.90;;;;;;5092938;28;20940;-85
2022/07/10 05:32:01;;;;;;;6.10;4.85;;;14.30;99.90;;;;;;5092719;28;20479;-85
2022/07/10 05:34:29;;;;;;;8.52;5.43;;;14.30;99.90;;;;;;5075152;28;20766;-85
2022/07/10 05:36:57;;;;;;;10.33;4.43;;;14.30;99.90;;;;;;5092612;28;20393;-85
2022/07/10 05:39:26;;;;;;;6.25;5.40;;;14.30;99.90;;;;;;5074907;28;20384;-85
2022/07/10 05:41:55;;;;;;;12.65;7.03;;;14.30;99.90;;;;;;5092420;28;20390;-85
2022/07/10 05:44:23;;;;;;;8.82;7.43;;;14.30;99.90;;;;;;5092590;28;20391;-85
2022/07/10 05:46:51;;;;;;;10.93;9.27;;;14.30;99.90;;;;;;5073776;28;20395;-85
2022/07/10 05:49:19;;;;;;;17.13;11.18;;;14.30;99.90;;;;;;5092636;28;20387;-85
2022/07/10 05:51:47;;;;;;;15.20;9.50;;;14.20;99.90;;;;;;5092452;28;20385;-84
2022/07/10 05:54:15;;;;;;;12.43;9.82;;;14.10;99.90;;;;;;5092813;28;20388;-85
2022/07/10 05:56:44;;;;;;;12.27;10.32;;;14.20;99.90;;;;;;5092174;28;20384;-84
2022/07/10 05:59:12;;;;;;;12.13;10.35;;;14.30;99.90;;;;;;5092274;28;20949;-85
2022/07/10 06:01:40;;;;;;;12.65;11.02;;;14.40;99.90;;;;;;5092212;28;20858;-85
2022/07/10 06:04:08;;;;;;;13.13;11.77;;;14.40;99.90;;;;;;5091698;28;20392;-86
2022/07/10 06:06:36;;;;;;;12.70;10.60;;;14.40;99.90;;;;;;5091746;28;20392;-85
2022/07/10 06:09:04;;;;;;;10.60;9.50;;;14.40;99.90;;;;;;5091142;28;20889;-85
2022/07/10 06:11:32;;;;;;;10.93;9.10;;;14.50;99.90;;;;;;5090823;28;20389;-85
2022/07/10 06:14:01;;;;;;;10.67;9.20;;;14.50;99.90;;;;;;5067215;28;20396;-85
2022/07/10 06:16:29;;;;;;;11.00;9.27;;;14.50;99.90;;;;;;5093918;28;20479;-83
2022/07/10 06:18:57;;;;;;;10.38;8.68;;;14.60;99.90;;;;;;5093943;28;20876;-85
2022/07/10 06:21:25;;;;;;;10.50;9.40;;;14.70;99.90;;;;;;5106072;28;20407;-85
2022/07/10 06:23:52;;;;;;;9.30;7.70;;;14.70;99.90;;;;;;5078699;28;20401;-84
2022/07/10 06:26:20;;;;;;;12.18;8.63;;;14.70;99.90;;;;;;5102648;28;20394;-86
2022/07/10 06:28:48;;;;;;;11.68;9.07;;;14.70;99.90;;;;;;5100830;28;20726;-86
2022/07/10 06:31:16;;;;;;;9.43;7.70;;;14.80;99.90;;;;;;5080550;28;20878;-85
2022/07/10 06:33:45;;;;;;;11.05;8.07;;;14.80;99.90;;;;;;5089918;28;20781;-85
2022/07/10 06:36:13;;;;;;;8.35;7.45;;;14.80;99.90;;;;;;5102409;28;20448;-85
2022/07/10 06:38:41;;;;;;;10.93;7.38;;;14.90;99.90;;;;;;5087129;28;20429;-84
2022/07/10 06:41:10;;;;;;;8.60;6.37;;;14.90;99.90;;;;;;5079082;28;20417;-85
2022/07/10 06:43:38;;;;;;;8.23;6.40;;;14.90;99.90;;;;;;5103262;28;20421;-85
2022/07/10 06:46:05;;;;;;;9.23;6.20;;;15.00;99.90;;;;;;5109147;28;20387;-84
2022/07/10 06:48:35;;;;;;;8.52;6.32;;;15.00;99.90;;;;;;5091328;28;20383;-84
2022/07/10 06:51:06;;;;;;;8.15;6.15;;;15.10;99.90;;;;;;5094394;28;20374;-85
2022/07/10 06:53:34;;;;;;;9.45;6.57;;;15.00;99.90;;;;;;5094131;28;20548;-86
2022/07/10 06:56:02;;;;;;;10.13;5.88;;;15.10;99.90;;;;;;5094118;28;20868;-86
2022/07/10 06:58:30;;;;;;;6.70;4.40;;;15.10;99.90;;;;;;5096381;28;20818;-85
2022/07/10 07:00:58;;;;;;;7.97;4.80;;;15.00;99.90;;;;;;5115868;28;20410;-86
2022/07/10 07:03:26;;;;;;;6.50;4.68;;;14.90;99.90;;;;;;5097672;28;20398;-85
2022/07/10 07:05:53;;;;;;;7.07;4.77;;;15.00;99.90;;;;;;5097682;28;20891;-86
2022/07/10 07:08:21;;;;;;;9.30;5.53;;;15.00;99.90;;;;;;5116022;28;20394;-86
2022/07/10 07:10:49;;;;;;;9.32;5.03;;;15.10;99.90;;;;;;5115822;28;20379;-86
2022/07/10 07:13:17;;;;;;;7.40;5.00;;;15.10;99.90;;;;;;5114313;28;20405;-85
2022/07/10 07:15:52;;;;;;;7.33;4.63;;;15.30;99.90;;;;;;5096746;28;20380;-84
2022/07/10 07:18:22;;;;;;;6.00;4.25;;;15.40;99.90;;;;;;5077202;28;20380;-86
2022/07/10 07:23:36;;;;;;;8.50;4.45;;;15.50;99.90;;;;;;5095080;28;20403;-86
2022/07/10 07:26:04;;;;;;;8.43;4.45;;;15.50;99.90;;;;;;5077238;28;20870;-86
2022/07/10 07:28:31;;;;;;;9.48;4.43;;;15.50;99.90;;;;;;5077264;28;20415;-86
2022/07/10 07:30:59;;;;;;;8.70;4.30;;;15.60;99.90;;;;;;5094053;28;20441;-85
2022/07/10 07:33:27;;;;;;;7.38;4.82;;;15.80;99.90;;;;;;5077048;28;20389;-87
2022/07/10 07:35:55;;;;;;;8.00;4.00;;;15.90;99.90;;;;;;5108888;28;20864;-87
2022/07/10 07:38:23;;;;;;;6.30;4.35;;;15.90;99.90;;;;;;5103557;28;20409;-86
2022/07/10 07:40:51;;;;;;;7.60;3.70;;;16.00;99.90;;;;;;5115334;28;20398;-85
2022/07/10 07:43:18;;;;;;;6.43;3.42;;;16.00;99.90;;;;;;5098533;28;20445;-84
2022/07/10 07:45:47;;;;;;;7.15;3.08;;;16.00;99.90;;;;;;5094954;28;20388;-86
2022/07/10 07:48:15;;;;;;;7.28;3.50;;;16.10;99.90;;;;;;5093691;28;20898;-85
2022/07/10 07:50:43;;;;;;;7.28;3.50;;;16.10;99.90;;;;;;5060136;28;20381;-84
2022/07/10 07:53:11;;;;;;;6.70;3.20;;;16.10;99.90;;;;;;5093704;28;20392;-86
2022/07/10 07:55:39;;;;;;;5.07;2.85;;;16.10;99.90;;;;;;5110643;28;20398;-85
2022/07/10 07:58:07;;;;;;;8.45;3.53;;;16.10;99.90;;;;;;5097245;28;20759;-86
2022/07/10 08:00:35;;;;;;;6.13;3.03;;;16.20;99.90;;;;;;5096645;28;20389;-85
2022/07/10 08:03:03;;;;;;;8.05;3.42;;;16.30;99.90;;;;;;5114606;28;20406;-85
2022/07/10 08:05:31;;;;;;;5.97;3.10;;;16.30;99.90;;;;;;5114644;28;20381;-83
2022/07/10 08:08:04;;;;;;;5.80;3.10;;;16.30;99.90;;;;;;5114479;28;20402;-86
2022/07/10 08:10:33;;;;;;;7.22;3.58;;;16.30;99.90;;;;;;5113709;28;20383;-85
2022/07/10 08:13:01;;;;;;;7.83;3.60;;;16.40;99.90;;;;;;5114541;28;20466;-85
2022/07/10 08:15:30;;;;;;;5.33;3.20;;;16.50;99.90;;;;;;5096719;28;20406;-86
2022/07/10 08:18:00;;;;;;;6.53;2.97;;;16.40;99.90;;;;;;5114416;28;20429;-86
2022/07/10 08:20:28;;;;;;;8.00;3.40;;;16.40;99.90;;;;;;5096524;28;20786;-85
2022/07/10 08:22:56;;;;;;;8.57;3.77;;;16.50;99.90;;;;;;5103883;28;20495;-85
2022/07/10 08:25:29;;;;;;;5.78;3.20;;;16.60;99.90;;;;;;5094120;28;20388;-85
2022/07/10 08:28:03;;;;;;;8.07;3.40;;;16.60;99.90;;;;;;5092635;28;20483;-86
2022/07/10 08:30:31;;;;;;;9.60;3.40;;;16.80;99.90;;;;;;5094176;28;20399;-86
2022/07/10 08:32:59;;;;;;;7.47;3.33;;;16.80;99.90;;;;;;5091111;28;20382;-84
2022/07/10 08:35:27;;;;;;;7.20;3.00;;;16.80;99.90;;;;;;5113054;28;20406;-85
2022/07/10 08:37:54;;;;;;;9.23;3.97;;;16.90;99.90;;;;;;5111894;28;20383;-86
2022/07/10 08:40:22;;;;;;;6.93;2.90;;;16.90;99.90;;;;;;5092701;28;20766;-85
2022/07/10 08:42:51;;;;;;;7.93;3.43;;;17.00;99.90;;;;;;5093736;28;20616;-85
2022/07/10 08:45:18;;;;;;;7.50;3.20;;;16.90;99.90;;;;;;5093718;28;20389;-84
2022/07/10 08:47:46;;;;;;;9.25;3.88;;;16.90;99.90;;;;;;5092217;28;20934;-85
2022/07/10 08:50:24;;;;;;;8.13;3.57;;;17.00;99.90;;;;;;5093442;28;20388;-85
2022/07/10 08:53:16;;;;;;;9.52;3.35;;;17.20;99.90;;;;;;5096497;28;20387;-85
2022/07/10 08:55:44;;;;;;;6.55;3.30;;;17.30;99.90;;;;;;5109931;28;20383;-85
2022/07/10 08:58:13;;;;;;;8.02;3.33;;;17.30;99.90;;;;;;5113907;28;20436;-85
2022/07/10 09:00:41;;;;;;;5.53;2.67;;;17.30;99.90;;;;;;5105064;28;20396;-85
2022/07/10 09:03:09;;;;;;;6.67;2.60;;;17.10;99.90;;;;;;5095496;28;20400;-84
2022/07/10 09:05:38;;;;;;;6.95;3.13;;;17.20;99.90;;;;;;5091081;28;20394;-85
2022/07/10 09:08:28;;;;;;;7.93;2.58;;;17.30;99.90;;;;;;5089764;28;20404;-86
2022/07/10 09:11:15;;;;;;;5.77;2.53;;;17.30;99.90;;;;;;5093383;28;20385;-85
2022/07/10 09:13:58;;;;;;;5.67;2.60;;;17.40;99.90;;;;;;5093342;28;20477;-86
2022/07/10 09:16:34;;;;;;;6.88;2.53;;;17.50;99.90;;;;;;5111413;28;20860;-85
2022/07/10 09:19:24;;;;;;;6.67;3.20;;;17.60;99.90;;;;;;5093127;28;20377;-85
2022/07/10 09:21:55;;;;;;;5.80;2.78;;;17.70;99.90;;;;;;5075514;28;20390;-85
2022/07/10 09:24:24;;;;;;;6.95;2.92;;;17.80;99.90;;;;;;5074990;28;20402;-85
2022/07/10 09:27:00;;;;;;;6.15;2.40;;;17.90;99.90;;;;;;5075178;28;20396;-85
2022/07/10 09:29:28;;;;;;;6.28;2.42;;;18.00;99.90;;;;;;5093027;28;20380;-85
2022/07/10 09:32:02;;;;;;;6.30;2.50;;;17.90;99.90;;;;;;5091512;28;20380;-86
2022/07/10 09:34:40;;;;;;;4.28;2.20;;;18.00;99.90;;;;;;5074965;28;20392;-84
2022/07/10 09:37:29;;;;;;;6.47;2.38;;;18.10;99.90;;;;;;5091519;28;20395;-84
2022/07/10 09:40:05;;;;;;;5.93;2.30;;;18.10;99.90;;;;;;5092641;28;20384;-85
2022/07/10 09:42:33;;;;;;;5.15;1.67;;;18.20;99.90;;;;;;5071298;28;20404;-84
2022/07/10 09:45:11;;;;;;;8.23;3.10;;;18.20;99.90;;;;;;5107852;28;20483;-86
2022/07/10 09:47:54;;;;;;;4.10;2.00;;;18.30;99.90;;;;;;5101462;28;20413;-84
2022/07/10 09:50:29;;;;;;;3.70;2.13;;;18.40;99.90;;;;;;5111481;28;20383;-84
2022/07/10 09:52:59;;;;;;;5.28;2.35;;;18.30;99.90;;;;;;5077901;28;20386;-85
2022/07/10 09:55:29;;;;;;;8.20;2.47;;;18.00;99.90;;;;;;5093048;28;20430;-85
2022/07/10 09:57:59;;;;;;;6.72;2.28;;;17.80;99.90;;;;;;5081700;28;20396;-84
2022/07/10 10:00:32;;;;;;;6.85;2.28;;;17.60;99.90;;;;;;5092422;28;20387;-85
2022/07/10 10:03:02;;;;;;;6.95;2.30;;;17.40;99.90;;;;;;5107976;28;20382;-84
2022/07/10 10:05:42;;;;;;;5.82;2.13;;;17.30;99.90;;;;;;5091255;28;20387;-81
2022/07/10 10:08:24;;;;;;;4.45;1.70;;;17.20;99.90;;;;;;5092093;28;20403;-84
2022/07/10 10:10:53;;;;;;;6.00;1.92;;;17.10;99.90;;;;;;5092072;28;20384;-85
2022/07/10 10:13:22;;;;;;;7.33;2.93;;;17.00;99.90;;;;;;5074298;28;20470;-84
2022/07/10 10:15:51;;;;;;;6.00;1.80;;;17.00;99.90;;;;;;5094351;28;20402;-85
2022/07/10 10:18:22;;;;;;;4.40;1.80;;;16.80;99.90;;;;;;5094613;28;20386;-84
2022/07/10 10:20:52;;;;;;;3.63;1.55;;;16.80;99.90;;;;;;5112348;28;20884;-86
2022/07/10 10:23:22;;;;;;;3.80;1.40;;;17.10;99.90;;;;;;5088197;28;20469;-84
2022/07/10 10:25:53;;;;;;;4.72;1.40;;;17.30;99.90;;;;;;5080447;28;20872;-85
2022/07/10 10:28:23;;;;;;;3.20;1.38;;;17.50;99.90;;;;;;5087563;28;20858;-83
2022/07/10 10:31:01;;;;;;;4.88;1.40;;;17.70;99.90;;;;;;5088477;28;20394;-85
2022/07/10 10:33:32;;;;;;;3.70;1.48;;;17.50;99.90;;;;;;5095245;28;20426;-84
2022/07/10 10:36:13;;;;;;;3.15;1.50;;;17.70;99.90;;;;;;5093283;28;20380;-84
2022/07/10 10:38:55;;;;;;;3.78;1.50;;;17.70;99.90;;;;;;5094656;28;20400;-85
2022/07/10 10:41:33;;;;;;;3.78;1.55;;;17.80;99.90;;;;;;5092175;28;20385;-85
2022/07/10 10:44:13;;;;;;;2.58;1.27;;;17.90;99.90;;;;;;5075600;28;20467;-84
2022/07/10 10:47:07;;;;;;;4.95;1.63;;;17.80;99.90;;;;;;5101598;28;20424;-84
2022/07/10 10:49:57;;;;;;;4.63;1.80;;;18.10;99.90;;;;;;5108962;28;20429;-82
2022/07/10 10:52:25;;;;;;;7.32;3.78;;;18.20;99.90;;;;;;5112199;28;20792;-84
2022/07/10 10:55:03;;;;;;;3.53;1.45;;;18.40;99.90;;;;;;5110752;28;20490;-83
2022/07/10 10:57:36;;;;;;;3.40;1.52;;;18.30;99.90;;;;;;5104754;28;20396;-85
2022/07/10 11:00:08;;;;;;;3.38;1.48;;;18.50;99.90;;;;;;5109789;28;20877;-85
2022/07/10 11:02:39;;;;;;;3.45;1.38;;;18.40;99.90;;;;;;5110939;28;20390;-85
2022/07/10 11:05:18;;;;;;;4.13;1.40;;;18.70;99.90;;;;;;5092575;28;20489;-83
2022/07/10 11:07:54;;;;;;;3.63;1.30;;;18.90;99.90;;;;;;5109790;28;20411;-84
2022/07/10 11:10:39;;;;;;;3.13;1.40;;;18.70;99.90;;;;;;5085512;28;20400;-84
2022/07/10 11:13:18;;;;;;;3.40;1.55;;;18.70;99.90;;;;;;5091685;28;20437;-85
2022/07/10 11:15:48;;;;;;;5.65;1.77;;;18.70;99.90;;;;;;5091684;28;20866;-85
2022/07/10 11:18:19;;;;;;;3.22;1.50;;;18.70;99.90;;;;;;5091689;28;20472;-84
2022/07/10 11:20:53;;;;;;;3.05;1.40;;;18.80;99.90;;;;;;5073887;28;20380;-84
2022/07/10 11:23:41;;;;;;;2.88;1.40;;;18.90;99.90;;;;;;5091435;28;20384;-84
2022/07/10 11:26:14;;;;;;;2.53;1.10;;;18.90;99.90;;;;;;5107145;28;20373;-85
2022/07/10 11:28:52;;;;;;;3.33;1.20;;;19.20;99.90;;;;;;5091600;28;20429;-85
2022/07/10 11:31:23;;;;;;;4.38;1.17;;;19.30;99.90;;;;;;5091535;28;20754;-85
2022/07/10 11:33:56;;;;;;;3.42;1.10;;;19.50;99.90;;;;;;5073895;28;20437;-84
2022/07/10 11:36:34;;;;;;;1.83;0.90;;;19.50;99.90;;;;;;5091362;28;20393;-85
2022/07/10 11:39:07;;;;;;;2.40;0.90;;;19.40;99.90;;;;;;5073879;28;20384;-86
2022/07/10 11:41:45;;;;;;;1.80;1.13;;;19.50;99.90;;;;;;5073233;28;20442;-85
2022/07/10 11:44:18;;;;;;;2.03;1.20;;;19.70;99.90;;;;;;5091673;28;20407;-85
2022/07/10 11:46:48;;;;;;;3.53;1.20;;;19.70;99.90;;;;;;5094796;28;20388;-85
2022/07/10 11:49:17;;;;;;;2.42;1.20;;;19.50;99.90;;;;;;5077214;28;20381;-84
2022/07/10 11:51:45;;;;;;;5.57;1.20;;;19.60;99.90;;;;;;5079332;28;20471;-85
2022/07/10 11:54:16;;;;;;;3.15;1.10;;;19.80;99.90;;;;;;5109965;28;20383;-85
2022/07/10 11:56:52;;;;;;;2.25;1.10;;;20.00;99.90;;;;;;5097151;28;20390;-85
2022/07/10 11:59:27;;;;;;;2.83;1.38;;;19.90;99.90;;;;;;5114930;28;20383;-85
2022/07/10 12:01:56;;;;;;;3.33;1.40;;;20.00;99.90;;;;;;5099166;28;20395;-85
2022/07/10 12:04:26;;;;;;;3.72;1.15;;;20.30;99.90;;;;;;5094651;28;20454;-84
2022/07/10 12:06:55;;;;;;;2.55;1.20;;;20.50;99.90;;;;;;5109363;28;20444;-85
2022/07/10 12:09:24;;;;;;;2.47;1.20;;;20.60;99.90;;;;;;5114795;28;20443;-85
2022/07/10 12:12:06;;;;;;;4.40;1.42;;;20.60;99.90;;;;;;5096754;28;20884;-86
2022/07/10 12:14:34;;;;;;;2.90;1.23;;;20.70;99.90;;;;;;5107543;28;20381;-86
2022/07/10 12:17:12;;;;;;;3.15;1.10;;;20.60;99.90;;;;;;5090385;28;20449;-86
2022/07/10 12:19:40;;;;;;;3.30;1.10;;;20.60;99.90;;;;;;5110729;28;20387;-84
2022/07/10 12:22:09;;;;;;;3.25;1.15;;;20.40;99.90;;;;;;5096770;28;20919;-84
2022/07/10 12:24:37;;;;;;;5.03;1.42;;;20.00;99.90;;;;;;5114438;28;20427;-84
2022/07/10 12:27:07;;;;;;;3.40;1.13;;;19.80;99.90;;;;;;5096200;28;20389;-83
2022/07/10 12:29:35;;;;;;;2.65;1.27;;;19.70;99.90;;;;;;5094787;28;20415;-81
2022/07/10 12:32:03;;;;;;;1.65;1.10;;;19.60;99.90;;;;;;5109922;28;20381;-83
2022/07/10 12:34:47;;;;;;;3.28;1.20;;;19.60;99.90;;;;;;5114125;28;20394;-84
2022/07/10 12:37:16;;;;;;;2.70;1.10;;;19.70;99.90;;;;;;5093843;28;20433;-84
2022/07/10 12:39:54;;;;;;;3.33;1.10;;;19.90;99.90;;;;;;5108344;28;20391;-86
2022/07/10 12:42:29;;;;;;;3.35;1.20;;;19.90;99.90;;;;;;5096000;28;20393;-85
2022/07/10 12:45:10;;;;;;;4.10;1.23;;;20.00;99.90;;;;;;5113928;28;20757;-84
2022/07/10 12:47:46;;;;;;;4.00;1.23;;;20.40;99.90;;;;;;5113899;28;20900;-85
2022/07/10 12:50:19;;;;;;;3.15;1.23;;;20.50;99.90;;;;;;5096460;28;20378;-85
2022/07/10 12:52:47;;;;;;;3.95;1.10;;;20.80;99.90;;;;;;5114184;28;20383;-85
2022/07/10 12:55:21;;;;;;;4.55;1.20;;;20.70;99.90;;;;;;5094247;28;20410;-84
2022/07/10 12:57:54;;;;;;;3.35;1.30;;;20.50;99.90;;;;;;5095805;28;20406;-84
2022/07/10 13:00:27;;;;;;;3.22;1.27;;;20.20;99.90;;;;;;5095777;28;20379;-84
2022/07/10 13:02:59;;;;;;;3.05;1.25;;;20.30;99.90;;;;;;5113719;28;20389;-85